Time;durP1;ratioP1;P1;durP2;ratioP2;P2;SDS_P1;SDS_P2;PMS_P1;PMS_P2;Temp;Humidity;BMP_temperature;BMP_pressure;BME280_temperature;BME280_humidity;BME280_pressure;Samples;Min_cycle;Max_cycle;Signal;HPM_P1;HPM_P2
2021/11/22 00:00:46;;;;;;;;;;;2.90;99.90;;;;;;5097777;28;20420;-76
2021/11/22 00:03:13;;;;;;;;;;;2.90;99.90;;;;;;5095462;28;19935;-76
2021/11/22 00:05:40;;;;;;;;;;;2.90;99.90;;;;;;5095204;28;19924;-76
2021/11/22 00:08:07;;;;;;;;;;;2.90;99.90;;;;;;5095249;28;19935;-75
2021/11/22 00:10:34;;;;;;;;;;;2.90;99.90;;;;;;5095200;28;19954;-75
2021/11/22 00:13:01;;;;;;;;;;;2.90;99.90;;;;;;5095127;28;19925;-75
2021/11/22 00:15:29;;;;;;;;;;;3.00;99.90;;;;;;5095509;28;20014;-75
2021/11/22 00:17:56;;;;;;;;;;;3.10;99.90;;;;;;5095057;28;19924;-75
2021/11/22 00:20:23;;;;;;;;;;;3.10;99.90;;;;;;5094950;28;19923;-75
2021/11/22 00:22:50;;;;;;;;;;;3.10;99.90;;;;;;5095261;28;19928;-75
2021/11/22 00:25:17;;;;;;;;;;;3.10;99.90;;;;;;5095116;28;20023;-76
2021/11/22 00:27:44;;;;;;;;;;;3.10;99.90;;;;;;5095037;28;19924;-76
2021/11/22 00:30:12;;;;;;;;;;;3.10;99.90;;;;;;5094666;28;19924;-75
2021/11/22 00:32:43;;;;;;;;;;;3.10;99.90;;;;;;5094911;28;19974;-75
2021/11/22 00:35:10;;;;;;;;;;;3.10;99.90;;;;;;5095438;28;20015;-76
2021/11/22 00:37:38;;;;;;;;;;;3.10;99.90;;;;;;5095981;28;19935;-76
2021/11/22 00:40:05;;;;;;;;;;;3.10;99.90;;;;;;5095494;28;20042;-75
2021/11/22 00:42:32;;;;;;;;;;;3.20;99.90;;;;;;5094663;28;19931;-75
2021/11/22 00:44:58;;;;;;;;;;;3.20;99.90;;;;;;5095231;28;20326;-75
2021/11/22 00:47:25;;;;;;;;;;;3.20;99.90;;;;;;5094953;28;19932;-77
2021/11/22 00:49:54;;;;;;;;;;;3.20;99.90;;;;;;5100323;28;20018;-75
2021/11/22 00:52:20;;;;;;;;;;;3.00;99.90;;;;;;5115157;28;20018;-76
2021/11/22 00:54:47;;;;;;;;;;;3.30;99.90;;;;;;5115768;28;20378;-75
2021/11/22 00:57:14;;;;;;;;;;;3.30;99.90;;;;;;5115597;28;20019;-75
2021/11/22 00:59:41;;;;;;;;;;;3.30;99.90;;;;;;5114977;28;20030;-75
2021/11/22 01:02:08;;;;;;;;;;;3.30;99.90;;;;;;5115003;28;20011;-75
2021/11/22 01:04:36;;;;;;;;;;;3.30;99.90;;;;;;5114955;28;19923;-75
2021/11/22 01:07:05;;;;;;;;;;;3.20;99.90;;;;;;5115029;28;20315;-75
2021/11/22 01:09:32;;;;;;;;;;;3.30;99.90;;;;;;5114925;28;20019;-75
2021/11/22 01:11:59;;;;;;;;;;;3.20;99.90;;;;;;5116425;28;19924;-75
2021/11/22 01:14:26;;;;;;;;;;;3.10;99.90;;;;;;5118745;28;20026;-75
2021/11/22 01:16:52;;;;;;;;;;;3.20;99.90;;;;;;5118947;28;19924;-75
2021/11/22 01:19:19;;;;;;;;;;;3.10;99.90;;;;;;5118618;28;19928;-75
2021/11/22 01:21:46;;;;;;;;;;;3.00;99.90;;;;;;5118567;28;20117;-74
2021/11/22 01:24:14;;;;;;;;;;;2.90;99.90;;;;;;5118489;28;19924;-74
2021/11/22 01:26:41;;;;;;;;;;;2.80;99.90;;;;;;5118561;28;19959;-74
2021/11/22 01:29:08;;;;;;;;;;;2.70;99.90;;;;;;5118175;28;20259;-74
2021/11/22 01:31:35;;;;;;;;;;;2.60;99.90;;;;;;5118588;28;20031;-75
2021/11/22 01:34:02;;;;;;;;;;;2.60;99.90;;;;;;5118291;28;20019;-75
2021/11/22 01:36:29;;;;;;;;;;;2.60;99.90;;;;;;5118379;28;20011;-75
2021/11/22 01:38:56;;;;;;;;;;;4.10;99.90;;;;;;5116892;28;20043;-74
2021/11/22 01:41:24;;;;;;;;;;;2.40;99.90;;;;;;5116899;28;19928;-75
2021/11/22 01:43:51;;;;;;;;;;;2.40;99.90;;;;;;5118430;28;19924;-75
2021/11/22 01:46:18;;;;;;;;;;;2.30;99.90;;;;;;5118207;28;19934;-75
2021/11/22 01:48:45;;;;;;;;;;;2.30;99.90;;;;;;5118265;28;19924;-75
2021/11/22 01:51:12;;;;;;;;;;;2.30;99.90;;;;;;5118027;28;19934;-75
2021/11/22 01:53:38;;;;;;;;;;;2.30;99.90;;;;;;5117846;28;19924;-75
2021/11/22 01:56:05;;;;;;;;;;;2.30;99.90;;;;;;5117577;28;20014;-75
2021/11/22 01:58:34;;;;;;;;;;;2.20;99.90;;;;;;5117690;28;20026;-75
2021/11/22 02:01:00;;;;;;;;;;;2.20;99.90;;;;;;5117748;28;19924;-75
2021/11/22 02:03:27;;;;;;;;;;;2.20;99.90;;;;;;5117845;28;20407;-75
2021/11/22 02:05:54;;;;;;;;;;;2.20;99.90;;;;;;5117802;28;20015;-75
2021/11/22 02:08:21;;;;;;;;;;;2.20;99.90;;;;;;5117772;28;19930;-75
2021/11/22 02:10:48;;;;;;;;;;;2.20;99.90;;;;;;5117783;28;19928;-75
2021/11/22 02:13:15;;;;;;;;;;;2.20;99.90;;;;;;5117563;28;20019;-75
2021/11/22 02:15:44;;;;;;;;;;;2.30;99.90;;;;;;5117717;28;20014;-75
2021/11/22 02:18:11;;;;;;;;;;;2.30;99.90;;;;;;5117500;28;20275;-75
2021/11/22 02:20:39;;;;;;;;;;;2.30;99.90;;;;;;5117455;28;20022;-75
2021/11/22 02:23:06;;;;;;;;;;;2.30;99.90;;;;;;5116680;28;20026;-75
2021/11/22 02:25:33;;;;;;;;;;;2.30;99.90;;;;;;5117620;28;20014;-75
2021/11/22 02:28:00;;;;;;;;;;;2.30;99.90;;;;;;5117445;28;20266;-75
2021/11/22 02:30:30;;;;;;;;;;;2.40;99.90;;;;;;5117214;28;19980;-75
2021/11/22 02:32:57;;;;;;;;;;;2.30;99.90;;;;;;5117268;28;19928;-75
2021/11/22 02:35:24;;;;;;;;;;;2.30;99.90;;;;;;5117167;28;20398;-75
2021/11/22 02:37:52;;;;;;;;;;;2.20;99.90;;;;;;5117296;28;19976;-75
2021/11/22 02:40:19;;;;;;;;;;;2.20;99.90;;;;;;5116973;28;19937;-75
2021/11/22 02:42:46;;;;;;;;;;;2.10;99.90;;;;;;5117005;28;19959;-75
2021/11/22 02:45:14;;;;;;;;;;;2.10;99.90;;;;;;5117107;28;20263;-75
2021/11/22 02:47:41;;;;;;;;;;;2.00;99.90;;;;;;5116894;28;20352;-75
2021/11/22 02:50:08;;;;;;;;;;;2.00;99.90;;;;;;5116823;28;20383;-75
2021/11/22 02:52:36;;;;;;;;;;;1.90;99.90;;;;;;5116846;28;20348;-75
2021/11/22 02:55:04;;;;;;;;;;;1.90;99.90;;;;;;5116866;28;19928;-75
2021/11/22 02:57:31;;;;;;;;;;;1.90;99.90;;;;;;5116875;28;19924;-75
2021/11/22 02:59:58;;;;;;;;;;;1.80;99.90;;;;;;5116663;28;20014;-75
2021/11/22 03:02:25;;;;;;;;;;;1.80;99.90;;;;;;5116792;28;20356;-75
2021/11/22 03:04:52;;;;;;;;;;;1.80;99.90;;;;;;5116728;28;19924;-75
2021/11/22 03:07:19;;;;;;;;;;;1.80;99.90;;;;;;5116926;28;19928;-75
2021/11/22 03:09:46;;;;;;;;;;;1.80;99.90;;;;;;5116475;28;20022;-75
2021/11/22 03:12:14;;;;;;;;;;;1.80;99.90;;;;;;5116378;28;20018;-75
2021/11/22 03:14:41;;;;;;;;;;;1.80;99.90;;;;;;5116255;28;19923;-75
2021/11/22 03:17:08;;;;;;;;;;;1.80;99.90;;;;;;5116389;28;19927;-75
2021/11/22 03:19:35;;;;;;;;;;;1.70;99.90;;;;;;5116386;28;19924;-75
2021/11/22 03:22:02;;;;;;;;;;;1.70;99.90;;;;;;5116236;28;20015;-75
2021/11/22 03:24:29;;;;;;;;;;;1.70;99.90;;;;;;5116222;28;19923;-75
2021/11/22 03:26:57;;;;;;;;;;;1.70;99.90;;;;;;5116383;28;19924;-75
2021/11/22 03:29:25;;;;;;;;;;;1.70;99.90;;;;;;5116017;28;20352;-75
2021/11/22 03:31:53;;;;;;;;;;;1.70;99.90;;;;;;5116131;28;19923;-74
2021/11/22 03:34:20;;;;;;;;;;;1.70;99.90;;;;;;5115988;28;19927;-74
2021/11/22 03:36:48;;;;;;;;;;;1.70;99.90;;;;;;5116159;28;19946;-75
2021/11/22 03:39:18;;;;;;;;;;;1.70;99.90;;;;;;5116115;28;20259;-74
2021/11/22 03:41:45;;;;;;;;;;;1.70;99.90;;;;;;5116025;28;20272;-74
2021/11/22 03:44:13;;;;;;;;;;;1.70;99.90;;;;;;5116093;28;19934;-74
2021/11/22 03:46:42;;;;;;;;;;;1.70;99.90;;;;;;5115754;28;20442;-75
2021/11/22 03:49:09;;;;;;;;;;;1.70;99.90;;;;;;5115666;28;20359;-75
2021/11/22 03:51:36;;;;;;;;;;;1.60;99.90;;;;;;5115907;28;20016;-75
2021/11/22 03:54:03;;;;;;;;;;;1.60;99.90;;;;;;5115949;28;20006;-75
2021/11/22 03:56:29;;;;;;;;;;;1.50;99.90;;;;;;5115673;28;19927;-75
2021/11/22 03:58:56;;;;;;;;;;;1.50;99.90;;;;;;5115654;28;20334;-75
2021/11/22 04:01:23;;;;;;;;;;;1.40;99.90;;;;;;5115777;28;19924;-75
2021/11/22 04:03:52;;;;;;;;;;;1.40;99.90;;;;;;5115669;28;20335;-75
2021/11/22 04:06:18;;;;;;;;;;;1.40;99.90;;;;;;5115601;28;20366;-75
2021/11/22 04:08:45;;;;;;;;;;;1.40;99.90;;;;;;5115883;28;20296;-74
2021/11/22 04:11:12;;;;;;;;;;;1.40;99.90;;;;;;5115847;28;19996;-74
2021/11/22 04:13:39;;;;;;;;;;;1.40;99.90;;;;;;5115665;28;19923;-74
2021/11/22 04:16:06;;;;;;;;;;;1.40;99.90;;;;;;5115789;28;20015;-74
2021/11/22 04:18:33;;;;;;;;;;;1.30;99.90;;;;;;5115492;28;19930;-75
2021/11/22 04:21:01;;;;;;;;;;;1.30;99.90;;;;;;5115399;28;19934;-74
2021/11/22 04:23:28;;;;;;;;;;;1.30;99.90;;;;;;5115450;28;20018;-75
2021/11/22 04:25:55;;;;;;;;;;;1.30;99.90;;;;;;5115400;28;19974;-75
2021/11/22 04:28:22;;;;;;;;;;;1.30;99.90;;;;;;5115167;28;20014;-74
2021/11/22 04:30:49;;;;;;;;;;;1.20;99.90;;;;;;5115267;28;20018;-74
2021/11/22 04:33:16;;;;;;;;;;;1.20;99.90;;;;;;5114948;28;19934;-74
2021/11/22 04:35:43;;;;;;;;;;;1.20;99.90;;;;;;5113752;28;20026;-74
2021/11/22 04:38:11;;;;;;;;;;;1.10;99.90;;;;;;5114609;28;20030;-74
2021/11/22 04:40:38;;;;;;;;;;;1.10;99.90;;;;;;5115295;28;19928;-74
2021/11/22 04:43:05;;;;;;;;;;;1.10;99.90;;;;;;5115176;28;20022;-74
2021/11/22 04:45:32;;;;;;;;;;;1.10;99.90;;;;;;5115506;28;20249;-74
2021/11/22 04:47:59;;;;;;;;;;;1.10;99.90;;;;;;5118458;28;19969;-74
2021/11/22 04:50:26;;;;;;;;;;;1.10;99.90;;;;;;5119301;28;20010;-74
2021/11/22 04:52:55;;;;;;;;;;;1.10;99.90;;;;;;5119161;28;20426;-74
2021/11/22 04:55:23;;;;;;;;;;;1.10;99.90;;;;;;5119018;28;19927;-74
2021/11/22 04:57:50;;;;;;;;;;;1.10;99.90;;;;;;5118424;28;20014;-74
2021/11/22 05:00:18;;;;;;;;;;;1.10;99.90;;;;;;5119232;28;19924;-74
2021/11/22 05:02:46;;;;;;;;;;;1.10;99.90;;;;;;5119056;28;20286;-74
2021/11/22 05:05:13;;;;;;;;;;;1.10;99.90;;;;;;5118906;28;19992;-74
2021/11/22 05:07:39;;;;;;;;;;;1.00;99.90;;;;;;5118784;28;19950;-74
2021/11/22 05:10:07;;;;;;;;;;;1.00;99.90;;;;;;5118877;28;20028;-74
2021/11/22 05:12:35;;;;;;;;;;;1.10;99.90;;;;;;5119051;28;19945;-74
2021/11/22 05:15:02;;;;;;;;;;;1.00;99.90;;;;;;5118918;28;20018;-75
2021/11/22 05:17:29;;;;;;;;;;;1.00;99.90;;;;;;5118771;28;20030;-74
2021/11/22 05:19:56;;;;;;;;;;;1.00;99.90;;;;;;5118816;28;20028;-74
2021/11/22 05:22:24;;;;;;;;;;;0.90;99.90;;;;;;5118617;28;19934;-74
2021/11/22 05:24:51;;;;;;;;;;;1.00;99.90;;;;;;5118447;28;19974;-75
2021/11/22 05:27:17;;;;;;;;;;;0.90;99.90;;;;;;5118453;28;20026;-74
2021/11/22 05:29:46;;;;;;;;;;;0.90;99.90;;;;;;5118399;28;19923;-74
2021/11/22 05:32:16;;;;;;;;;;;0.90;99.90;;;;;;5118445;28;19924;-74
2021/11/22 05:34:42;;;;;;;;;;;0.90;99.90;;;;;;5118266;28;20321;-74
2021/11/22 05:37:09;;;;;;;;;;;0.90;99.90;;;;;;5118324;28;19923;-74
2021/11/22 05:39:37;;;;;;;;;;;0.90;99.90;;;;;;5118183;28;19975;-74
2021/11/22 05:42:04;;;;;;;;;;;0.90;99.90;;;;;;5118287;28;19923;-74
2021/11/22 05:44:33;;;;;;;;;;;0.80;99.90;;;;;;5118118;28;19934;-74
2021/11/22 05:47:02;;;;;;;;;;;0.80;99.90;;;;;;5118271;28;19984;-74
2021/11/22 05:49:31;;;;;;;;;;;0.80;99.90;;;;;;5118187;28;19985;-74
2021/11/22 05:51:58;;;;;;;;;;;0.80;99.90;;;;;;5118015;28;19924;-74
2021/11/22 05:54:25;;;;;;;;;;;0.80;99.90;;;;;;5118121;28;19924;-74
2021/11/22 05:56:52;;;;;;;;;;;0.80;99.90;;;;;;5118138;28;19976;-74
2021/11/22 05:59:19;;;;;;;;;;;0.80;99.90;;;;;;5116552;28;20022;-74
2021/11/22 06:01:45;;;;;;;;;;;0.80;99.90;;;;;;5117791;28;20339;-74
2021/11/22 06:04:14;;;;;;;;;;;0.70;99.90;;;;;;5117850;28;19974;-74
2021/11/22 06:06:41;;;;;;;;;;;0.70;99.90;;;;;;5117758;28;19923;-74
2021/11/22 06:09:07;;;;;;;;;;;0.80;99.90;;;;;;5117678;28;20018;-74
2021/11/22 06:11:34;;;;;;;;;;;0.70;99.90;;;;;;5117628;28;20027;-74
2021/11/22 06:14:01;;;;;;;;;;;0.70;99.90;;;;;;5117711;28;20306;-74
2021/11/22 06:16:28;;;;;;;;;;;0.70;99.90;;;;;;5117650;28;19927;-74
2021/11/22 06:18:55;;;;;;;;;;;0.70;99.90;;;;;;5117436;28;20019;-74
2021/11/22 06:21:23;;;;;;;;;;;0.70;99.90;;;;;;5117394;28;20312;-74
2021/11/22 06:23:51;;;;;;;;;;;0.60;99.90;;;;;;5117379;28;20308;-74
2021/11/22 06:26:18;;;;;;;;;;;0.60;99.90;;;;;;5117381;28;19924;-74
2021/11/22 06:28:45;;;;;;;;;;;0.60;99.90;;;;;;5117151;28;19923;-75
2021/11/22 06:31:11;;;;;;;;;;;0.60;99.90;;;;;;5117229;28;19930;-74
2021/11/22 06:33:38;;;;;;;;;;;0.70;99.90;;;;;;5117103;28;20368;-74
2021/11/22 06:36:05;;;;;;;;;;;0.70;99.90;;;;;;5117394;28;20003;-74
2021/11/22 06:38:34;;;;;;;;;;;0.70;99.90;;;;;;5117055;28;20010;-74
2021/11/22 06:41:01;;;;;;;;;;;0.70;99.90;;;;;;5117209;28;19924;-74
2021/11/22 06:43:27;;;;;;;;;;;0.70;99.90;;;;;;5116959;28;20022;-75
2021/11/22 06:45:54;;;;;;;;;;;0.70;99.90;;;;;;5117314;28;19934;-74
2021/11/22 06:48:21;;;;;;;;;;;0.70;99.90;;;;;;5117086;28;20289;-74
2021/11/22 06:50:48;;;;;;;;;;;0.70;99.90;;;;;;5117118;28;20014;-75
2021/11/22 06:53:15;;;;;;;;;;;0.70;99.90;;;;;;5116758;28;20010;-74
2021/11/22 06:55:43;;;;;;;;;;;0.70;99.90;;;;;;5116959;28;20316;-74
2021/11/22 06:58:10;;;;;;;;;;;0.70;99.90;;;;;;5116685;28;20266;-74
2021/11/22 07:00:37;;;;;;;;;;;0.70;99.90;;;;;;5116759;28;19934;-75
2021/11/22 07:03:04;;;;;;;;;;;0.70;99.90;;;;;;5116554;28;19985;-74
2021/11/22 07:05:31;;;;;;;;;;;0.60;99.90;;;;;;5116617;28;20439;-74
2021/11/22 07:07:58;;;;;;;;;;;0.70;99.90;;;;;;5117033;28;19924;-74
2021/11/22 07:10:25;;;;;;;;;;;0.60;99.90;;;;;;5116387;28;19942;-74
2021/11/22 07:12:53;;;;;;;;;;;0.60;99.90;;;;;;5116472;28;20371;-74
2021/11/22 07:15:21;;;;;;;;;;;0.60;99.90;;;;;;5116461;28;20007;-74
2021/11/22 07:17:48;;;;;;;;;;;0.50;99.90;;;;;;5116396;28;19924;-74
2021/11/22 07:20:14;;;;;;;;;;;0.50;99.90;;;;;;5116248;28;19923;-74
2021/11/22 07:22:41;;;;;;;;;;;0.50;99.90;;;;;;5116286;28;20011;-74
2021/11/22 07:25:08;;;;;;;;;;;0.50;99.90;;;;;;5116175;28;19934;-74
2021/11/22 07:27:35;;;;;;;;;;;0.50;99.90;;;;;;5116193;28;19923;-74
2021/11/22 07:30:04;;;;;;;;;;;0.50;99.90;;;;;;5115995;28;19930;-74
2021/11/22 07:32:31;;;;;;;;;;;0.50;99.90;;;;;;5116065;28;20011;-74
2021/11/22 07:34:57;;;;;;;;;;;0.50;99.90;;;;;;5116163;28;20010;-74
2021/11/22 07:37:24;;;;;;;;;;;0.50;99.90;;;;;;5116018;28;20006;-74
2021/11/22 07:39:52;;;;;;;;;;;0.50;99.90;;;;;;5116064;28;20023;-74
2021/11/22 07:42:18;;;;;;;;;;;0.50;99.90;;;;;;5115770;28;19988;-74
2021/11/22 07:44:45;;;;;;;;;;;0.50;99.90;;;;;;5116168;28;20296;-74
2021/11/22 07:47:14;;;;;;;;;;;0.50;99.90;;;;;;5116117;28;19931;-74
2021/11/22 07:49:41;;;;;;;;;;;0.50;99.90;;;;;;5115880;28;19924;-75
2021/11/22 07:52:07;;;;;;;;;;;0.50;99.90;;;;;;5115779;28;20420;-74
2021/11/22 07:54:34;;;;;;;;;;;0.60;99.90;;;;;;5115781;28;19924;-75
2021/11/22 07:57:01;;;;;;;;;;;0.60;99.90;;;;;;5115772;28;20018;-75
2021/11/22 07:59:28;;;;;;;;;;;0.60;99.90;;;;;;5115788;28;20351;-75
2021/11/22 08:01:55;;;;;;;;;;;0.60;99.90;;;;;;5115764;28;20006;-75
2021/11/22 08:04:23;;;;;;;;;;;0.70;99.90;;;;;;5115613;28;19971;-74
2021/11/22 08:06:56;;;;;;;;;;;0.60;99.90;;;;;;5115630;28;20018;-74
2021/11/22 08:09:28;;;;;;;;;;;0.50;99.90;;;;;;5115682;28;20355;-75
2021/11/22 08:12:23;;;;;;;;;;;0.50;99.90;;;;;;5115696;28;19935;-75
2021/11/22 08:14:49;;;;;;;;;;;0.50;99.90;;;;;;5115559;28;19993;-74
2021/11/22 08:17:16;;;;;;;;;;;0.50;99.90;;;;;;5115484;28;19924;-74
2021/11/22 08:19:45;;;;;;;;;;;0.60;99.90;;;;;;5115569;28;20414;-74
2021/11/22 08:22:11;;;;;;;;;;;0.60;99.90;;;;;;5117492;28;20395;-74
2021/11/22 08:24:38;;;;;;;;;;;0.60;99.90;;;;;;5119609;28;20328;-74
2021/11/22 08:27:05;;;;;;;;;;;0.70;99.90;;;;;;5119887;28;20014;-74
2021/11/22 08:29:34;;;;;;;;;;;0.60;99.90;;;;;;5119554;28;20014;-75
2021/11/22 08:32:00;;;;;;;;;;;0.60;99.90;;;;;;5119753;28;19934;-74
2021/11/22 08:34:27;;;;;;;;;;;0.70;99.90;;;;;;5119605;28;19923;-74
2021/11/22 08:36:56;;;;;;;;;;;0.70;99.90;;;;;;5119680;28;20023;-74
2021/11/22 08:39:23;;;;;;;;;;;0.70;99.90;;;;;;5119445;28;19927;-74
2021/11/22 08:41:49;;;;;;;;;;;0.80;99.90;;;;;;5119625;28;19942;-75
2021/11/22 08:44:16;;;;;;;;;;;0.80;99.90;;;;;;5119207;28;19971;-74
2021/11/22 08:46:46;;;;;;;;;;;0.80;99.90;;;;;;5119295;28;20322;-74
2021/11/22 08:49:13;;;;;;;;;;;0.80;99.90;;;;;;5119213;28;19930;-75
2021/11/22 08:51:40;;;;;;;;;;;0.80;99.90;;;;;;5119197;28;19982;-75
2021/11/22 08:54:08;;;;;;;;;;;0.90;99.90;;;;;;5119325;28;19923;-75
2021/11/22 08:56:35;;;;;;;;;;;0.90;99.90;;;;;;5119132;28;20007;-74
2021/11/22 08:59:02;;;;;;;;;;;0.90;99.90;;;;;;5119140;28;19967;-74
2021/11/22 09:01:29;;;;;;;;;;;0.90;99.90;;;;;;5119243;28;19938;-74
2021/11/22 09:03:56;;;;;;;;;;;1.00;99.90;;;;;;5118971;28;20014;-74
2021/11/22 09:06:23;;;;;;;;;;;1.00;99.90;;;;;;5118905;28;20019;-75
2021/11/22 09:08:50;;;;;;;;;;;1.00;99.90;;;;;;5118861;28;19932;-74
2021/11/22 09:11:18;;;;;;;;;;;1.10;99.90;;;;;;5118997;28;20027;-74
2021/11/22 09:13:45;;;;;;;;;;;1.10;99.90;;;;;;5119013;28;20026;-74
2021/11/22 09:16:12;;;;;;;;;;;1.20;99.90;;;;;;5118717;28;20351;-74
2021/11/22 09:18:39;;;;;;;;;;;1.20;99.90;;;;;;5118644;28;20006;-74
2021/11/22 09:21:06;;;;;;;;;;;1.20;99.90;;;;;;5118703;28;20033;-74
2021/11/22 09:23:33;;;;;;;;;;;1.30;99.90;;;;;;5118556;28;19934;-75
2021/11/22 09:26:00;;;;;;;;;;;1.30;99.90;;;;;;5118689;28;19927;-74
2021/11/22 09:28:28;;;;;;;;;;;1.30;99.90;;;;;;5118537;28;20427;-75
2021/11/22 09:30:55;;;;;;;;;;;1.40;99.90;;;;;;5118317;28;20423;-74
2021/11/22 09:33:22;;;;;;;;;;;1.40;99.90;;;;;;5118153;28;20283;-74
2021/11/22 09:35:49;;;;;;;;;;;1.50;99.90;;;;;;5118315;28;20022;-74
2021/11/22 09:38:15;;;;;;;;;;;1.50;99.90;;;;;;5118362;28;20018;-75
2021/11/22 09:40:42;;;;;;;;;;;1.60;99.90;;;;;;5118519;28;19931;-75
2021/11/22 09:43:09;;;;;;;;;;;1.60;99.90;;;;;;5118028;28;20022;-74
2021/11/22 09:45:37;;;;;;;;;;;1.70;99.90;;;;;;5118227;28;19924;-75
2021/11/22 09:48:05;;;;;;;;;;;1.70;99.90;;;;;;5118022;28;20018;-75
2021/11/22 09:50:32;;;;;;;;;;;1.80;99.90;;;;;;5118079;28;20375;-75
2021/11/22 09:52:59;;;;;;;;;;;1.80;99.90;;;;;;5118120;28;19971;-74
2021/11/22 09:55:29;;;;;;;;;;;1.90;99.90;;;;;;5118132;28;19988;-74
2021/11/22 09:57:56;;;;;;;;;;;1.90;99.90;;;;;;5117944;28;19923;-75
2021/11/22 10:00:23;;;;;;;;;;;1.90;99.90;;;;;;5117944;28;19923;-75
2021/11/22 10:02:53;;;;;;;;;;;2.00;99.90;;;;;;5117795;28;20168;-75
2021/11/22 10:05:21;;;;;;;;;;;2.00;99.90;;;;;;5117747;28;19932;-75
2021/11/22 10:07:58;;;;;;;;;;;2.10;99.90;;;;;;5117878;28;20018;-75
2021/11/22 10:10:25;;;;;;;;;;;2.20;99.90;;;;;;5117766;28;19978;-75
2021/11/22 10:12:52;;;;;;;;;;;2.20;99.90;;;;;;5117867;28;20332;-75
2021/11/22 10:15:18;;;;;;;;;;;2.30;99.90;;;;;;5117532;28;19970;-75
2021/11/22 10:17:45;;;;;;;;;;;2.30;99.90;;;;;;5117534;28;19923;-75
2021/11/22 10:20:18;;;;;;;;;;;2.30;99.90;;;;;;5117462;28;19924;-75
2021/11/22 10:22:46;;;;;;;;;;;2.40;99.90;;;;;;5117551;28;20036;-75
2021/11/22 10:25:34;;;;;;;;;;;2.40;99.90;;;;;;5117464;28;19985;-75
2021/11/22 10:28:06;;;;;;;;;;;2.40;99.90;;;;;;5113126;28;20009;-75
2021/11/22 10:30:33;;;;;;;;;;;2.40;99.90;;;;;;5117085;28;19931;-75
2021/11/22 10:33:00;;;;;;;;;;;2.50;99.90;;;;;;5117402;28;20018;-75
2021/11/22 10:35:29;;;;;;;;;;;2.50;99.90;;;;;;5117332;28;20022;-75
2021/11/22 10:37:56;;;;;;;;;;;2.60;99.90;;;;;;5117327;28;20034;-75
2021/11/22 10:40:24;;;;;;;;;;;2.70;99.90;;;;;;5117122;28;20018;-75
2021/11/22 10:42:51;;;;;;;;;;;2.70;99.90;;;;;;5117032;28;20407;-75
2021/11/22 10:45:28;;;;;;;;;;;2.80;99.90;;;;;;5116531;28;20014;-75
2021/11/22 10:48:08;;;;;;;;;;;2.80;99.90;;;;;;5117440;28;19970;-75
2021/11/22 10:50:37;;;;;;;;;;;2.80;99.90;;;;;;5117077;28;19930;-75
2021/11/22 10:53:04;;;;;;;;;;;2.80;99.90;;;;;;5117148;28;19976;-75
2021/11/22 10:55:34;;;;;;;;;;;2.80;99.90;;;;;;5117077;28;19928;-75
2021/11/22 10:58:01;;;;;;;;;;;2.90;99.90;;;;;;5115691;28;20018;-75
2021/11/22 11:00:29;;;;;;;;;;;2.90;99.90;;;;;;5116849;28;19936;-75
2021/11/22 11:02:56;;;;;;;;;;;3.00;99.90;;;;;;5116639;28;19927;-75
2021/11/22 11:05:26;;;;;;;;;;;3.00;99.90;;;;;;5116965;28;20010;-75
2021/11/22 11:07:59;;;;;;;;;;;3.10;99.90;;;;;;5116598;28;19931;-75
2021/11/22 11:10:26;;;;;;;;;;;3.10;99.90;;;;;;5116576;28;19923;-75
2021/11/22 11:12:54;;;;;;;;;;;3.10;99.90;;;;;;5116495;28;20362;-75
2021/11/22 11:15:22;;;;;;;;;;;3.10;99.90;;;;;;5116567;28;19934;-75
2021/11/22 11:17:49;;;;;;;;;;;3.10;99.90;;;;;;5116657;28;20237;-75
2021/11/22 11:20:16;;;;;;;;;;;3.10;99.90;;;;;;5116353;28;20038;-75
2021/11/22 11:22:43;;;;;;;;;;;3.20;99.90;;;;;;5116390;28;19923;-75
2021/11/22 11:25:11;;;;;;;;;;;3.20;99.90;;;;;;5116301;28;20026;-75
2021/11/22 11:27:40;;;;;;;;;;;3.20;99.90;;;;;;5116230;28;20022;-75
2021/11/22 11:30:07;;;;;;;;;;;3.20;99.90;;;;;;5116011;28;19927;-75
2021/11/22 11:32:34;;;;;;;;;;;3.30;99.90;;;;;;5116126;28;19973;-75
2021/11/22 11:35:02;;;;;;;;;;;3.30;99.90;;;;;;5116076;28;20006;-75
2021/11/22 11:37:33;;;;;;;;;;;3.40;99.90;;;;;;5116445;28;19995;-75
2021/11/22 11:40:24;;;;;;;;;;;3.50;99.90;;;;;;5116012;28;20014;-75
2021/11/22 11:43:09;;;;;;;;;;;3.60;99.90;;;;;;5115947;28;19923;-75
2021/11/22 11:45:37;;;;;;;;;;;3.60;99.90;;;;;;5116255;28;19930;-75
2021/11/22 11:48:08;;;;;;;;;;;3.70;99.90;;;;;;5115898;28;20022;-75
2021/11/22 11:50:38;;;;;;;;;;;3.70;99.90;;;;;;5115959;28;19961;-75
2021/11/22 11:53:06;;;;;;;;;;;3.70;99.90;;;;;;5115886;28;20030;-75
2021/11/22 11:55:33;;;;;;;;;;;3.70;99.90;;;;;;5115748;28;19970;-75
2021/11/22 11:58:19;;;;;;;;;;;3.70;99.90;;;;;;5115799;28;19934;-75
2021/11/22 12:00:53;;;;;;;;;;;3.70;99.90;;;;;;5113202;28;20022;-75
2021/11/22 12:03:20;;;;;;;;;;;3.70;99.90;;;;;;5112231;28;19967;-75
2021/11/22 12:05:47;;;;;;;;;;;3.70;99.90;;;;;;5115739;28;20364;-75
2021/11/22 12:08:21;;;;;;;;;;;3.70;99.90;;;;;;5115611;28;20014;-75
2021/11/22 12:10:48;;;;;;;;;;;3.70;99.90;;;;;;5115788;28;20006;-75
2021/11/22 12:13:16;;;;;;;;;;;3.80;99.90;;;;;;5115705;28;20026;-75
2021/11/22 12:15:44;;;;;;;;;;;3.90;99.90;;;;;;5115496;28;20301;-75
2021/11/22 12:18:11;;;;;;;;;;;3.90;99.90;;;;;;5115609;28;20233;-75
2021/11/22 12:20:56;;;;;;;;;;;3.90;99.90;;;;;;5115491;28;19968;-75
2021/11/22 12:23:24;;;;;;;;;;;4.00;99.90;;;;;;5115507;28;19982;-75
2021/11/22 12:25:52;;;;;;;;;;;4.00;99.90;;;;;;5115540;28;19935;-75
2021/11/22 12:28:38;;;;;;;;;;;4.00;99.90;;;;;;5115464;28;20030;-75
2021/11/22 12:31:06;;;;;;;;;;;4.00;99.90;;;;;;5115678;28;20030;-75
2021/11/22 12:33:34;;;;;;;;;;;4.10;99.90;;;;;;5115347;28;20402;-75
2021/11/22 12:36:01;;;;;;;;;;;4.10;99.90;;;;;;5115157;28;19924;-75
2021/11/22 12:38:28;;;;;;;;;;;4.10;99.90;;;;;;5115119;28;20022;-75
2021/11/22 12:40:56;;;;;;;;;;;4.10;99.90;;;;;;5115355;28;19924;-75
2021/11/22 12:43:36;;;;;;;;;;;4.10;99.90;;;;;;5115121;28;20022;-75
2021/11/22 12:46:04;;;;;;;;;;;4.10;99.90;;;;;;5115365;28;19923;-75
2021/11/22 12:48:33;;;;;;;;;;;4.20;99.90;;;;;;5115617;28;19942;-75
2021/11/22 12:51:00;;;;;;;;;;;4.20;99.90;;;;;;5115235;28;20030;-75
2021/11/22 12:53:27;;;;;;;;;;;4.20;99.90;;;;;;5115245;28;20019;-75
2021/11/22 12:55:55;;;;;;;;;;;4.20;99.90;;;;;;5115135;28;19924;-75
2021/11/22 12:58:23;;;;;;;;;;;4.20;99.90;;;;;;5115077;28;19928;-75
2021/11/22 13:00:53;;;;;;;;;;;4.30;99.90;;;;;;5115155;28;19923;-75
2021/11/22 13:03:21;;;;;;;;;;;4.30;99.90;;;;;;5115185;28;19938;-75
2021/11/22 13:05:56;;;;;;;;;;;4.30;99.90;;;;;;5115147;28;20319;-75
2021/11/22 13:08:42;;;;;;;;;;;4.40;99.90;;;;;;5117279;28;19981;-75
2021/11/22 13:11:29;;;;;;;;;;;4.40;99.90;;;;;;5118851;28;19924;-75
2021/11/22 13:13:58;;;;;;;;;;;4.40;99.90;;;;;;5119206;28;20297;-75
2021/11/22 13:16:28;;;;;;;;;;;4.50;99.90;;;;;;5118655;28;19973;-75
2021/11/22 13:18:55;;;;;;;;;;;4.50;99.90;;;;;;5118774;28;19943;-75
2021/11/22 13:21:27;;;;;;;;;;;4.60;99.90;;;;;;5118765;28;20014;-75
2021/11/22 13:23:55;;;;;;;;;;;4.60;99.90;;;;;;5118842;28;19959;-75
2021/11/22 13:26:22;;;;;;;;;;;4.60;99.90;;;;;;5118503;28;19982;-75
2021/11/22 13:28:50;;;;;;;;;;;4.60;99.90;;;;;;5118431;28;20296;-75
2021/11/22 13:31:17;;;;;;;;;;;4.60;99.90;;;;;;5118407;28;20022;-75
2021/11/22 13:33:43;;;;;;;;;;;4.60;99.90;;;;;;5118493;28;19982;-75
2021/11/22 13:36:10;;;;;;;;;;;4.60;99.90;;;;;;5118448;28;20022;-75
2021/11/22 13:38:40;;;;;;;;;;;4.60;99.90;;;;;;5118047;28;20022;-75
2021/11/22 13:41:12;;;;;;;;;;;4.70;99.90;;;;;;5118288;28;20015;-75
2021/11/22 13:43:40;;;;;;;;;;;4.70;99.90;;;;;;5118073;28;19934;-75
2021/11/22 13:46:07;;;;;;;;;;;4.70;99.90;;;;;;5118200;28;19923;-75
2021/11/22 13:48:50;;;;;;;;;;;4.70;99.90;;;;;;5118130;28;20006;-75
2021/11/22 13:51:17;;;;;;;;;;;4.80;99.90;;;;;;5118298;28;20010;-75
2021/11/22 13:53:46;;;;;;;;;;;4.90;99.90;;;;;;5118136;28;20014;-75
2021/11/22 13:56:22;;;;;;;;;;;4.90;99.90;;;;;;5118135;28;19989;-75
2021/11/22 13:58:49;;;;;;;;;;;4.90;99.90;;;;;;5117966;28;19934;-75
2021/11/22 14:01:16;;;;;;;;;;;4.90;99.90;;;;;;5117944;28;20034;-75
2021/11/22 14:03:43;;;;;;;;;;;4.90;99.90;;;;;;5118330;28;19928;-75
2021/11/22 14:06:09;;;;;;;;;;;4.90;99.90;;;;;;5118196;28;20014;-75
2021/11/22 14:08:36;;;;;;;;;;;5.00;99.90;;;;;;5117837;28;19924;-75
2021/11/22 14:11:18;;;;;;;;;;;4.90;99.90;;;;;;5117721;28;20356;-75
2021/11/22 14:13:47;;;;;;;;;;;5.00;99.90;;;;;;5118003;28;19967;-75
2021/11/22 14:16:17;;;;;;;;;;;5.00;99.90;;;;;;5117642;28;20016;-75
2021/11/22 14:18:44;;;;;;;;;;;5.10;99.90;;;;;;5117194;28;19934;-75
2021/11/22 14:21:11;;;;;;;;;;;5.20;99.90;;;;;;5117266;28;19924;-75
2021/11/22 14:23:38;;;;;;;;;;;5.20;99.90;;;;;;5117491;28;19981;-75
2021/11/22 14:26:05;;;;;;;;;;;5.20;99.90;;;;;;5117287;28;19923;-75
2021/11/22 14:28:38;;;;;;;;;;;5.30;99.90;;;;;;5117552;28;20018;-75
2021/11/22 14:31:06;;;;;;;;;;;5.30;99.90;;;;;;5117589;28;20030;-75
2021/11/22 14:33:34;;;;;;;;;;;5.30;99.90;;;;;;5117556;28;20006;-75
2021/11/22 14:36:03;;;;;;;;;;;5.30;99.90;;;;;;5117293;28;20026;-75